• Join FlightAware (Why Join?)
  • Login
  • US Flag 
01:16AM EDT


 

Airport Tracker/Info


-or-


 

Live Flight TrackerFlight Track Log ✈ N708JB ✈ 28-Apr-2012 ✈ KBOS - KLAS

Flight Track Log - Related Links

Times and Time Zones

All times are in EDT time to prevent confusion due to time zone crossing. See the N708JB flight status page for this flight to view local times or setup timezone preferences in your user account.

Time Position Orientation Groundspeed Altitude Reporting Facility
EDT Latitude Longitude Course Direction KTS MPH feet Rate Location/Type
08:21PM 42.3695 -71.0434 194° South  Level FlightAware Approximate
08:22PM 42.4758 -71.0796 170° South  Level FlightAware Approximate
08:22PM 42.3500 -71.0500 218° Southwest 168 193 2,000  Level Boston TRACON
08:24PM 42.2617 -71.1442 287° West 247 284 5,600 2,340 Climbing Boston Center
08:25PM 42.2792 -71.2222 349° North 196 226 8,400 2,520 Climbing Boston Center
08:26PM 42.3567 -71.2433 346° North 219 252 10,700 1,680 Climbing Boston Center
08:27PM 42.4361 -71.2697 319° Northwest 264 304 11,800 1,800 Climbing Boston Center
08:28PM 42.5056 -71.3531 285° West 318 366 14,300 2,100 Climbing Boston Center
08:29PM 42.5275 -71.4681 277° West 324 373 16,100 1,980 Climbing Boston Center
08:30PM 42.5389 -71.5947 278° West 336 387 18,300 2,100 Climbing Boston Center
08:31PM 42.5503 -71.7072 276° West 336 387 20,400 1,920 Climbing Boston Center
08:32PM 42.5592 -71.8283 276° West 336 387 22,200 1,500 Climbing Boston Center
08:33PM 42.5681 -71.9497 277° West 331 381 23,400 1,140 Climbing Boston Center
08:34PM 42.5792 -72.0764 276° West 331 381 24,500 1,080 Climbing Boston Center
08:35PM 42.5897 -72.2061 276° West 336 387 25,600 1,080 Climbing Boston Center
08:36PM 42.6006 -72.3442 278° West 342 394 26,700 960 Climbing Boston Center
08:37PM 42.6150 -72.4853 277° West 356 410 27,600 840 Climbing Boston Center
08:38PM 42.6275 -72.6208 273° West 369 425 28,400 900 Climbing Boston Center
08:39PM 42.6333 -72.7561 276° West 369 425 29,500 960 Climbing Boston Center
08:40PM 42.6433 -72.8917 274° West 369 425 30,400 900 Climbing Boston Center
08:41PM 42.6511 -73.0300 275° West 369 425 31,400 1,020 Climbing Boston Center
08:42PM 42.6606 -73.1686 276° West 369 425 32,500 900 Climbing Boston Center
08:43PM 42.6703 -73.3014 252° West 364 419 33,300 720 Climbing Boston Center
08:44PM 42.6400 -73.4308 261° West 358 412 34,000 300 Climbing Boston Center
08:45PM 42.6242 -73.5631 278° West 358 412 34,000  Level Boston Center
08:46PM 42.6372 -73.6961 275° West 358 412 34,000  Level Boston Center
08:47PM 42.6461 -73.8289 277° West 353 406 34,000  Level Boston Center
08:48PM 42.6569 -73.9589 277° West 353 406 34,000  Level Boston Center
08:49PM 42.6678 -74.0778 277° West 353 406 34,000  Level Boston Center
08:50PM 42.6803 -74.2250 275° West 353 406 34,000  Level Boston Center
08:51PM 42.6886 -74.3467 275° West 353 406 34,000  Level Boston Center
08:52PM 42.6986 -74.4939 277° West 353 406 34,000  Level Boston Center
08:53PM 42.7089 -74.6131 275° West 353 406 34,000  Level Boston Center
08:54PM 42.7186 -74.7575 275° West 353 406 34,000  Level Boston Center
08:55PM 42.7281 -74.8964 276° West 359 413 34,000  Level Boston Center
08:56PM 42.7378 -75.0297 275° West 359 413 34,000  Level Boston Center
08:57PM 42.7469 -75.1658 275° West 364 419 34,000  Level Boston Center
08:58PM 42.7544 -75.2847 275° West 364 419 34,000  Level Boston Center
08:59PM 42.7636 -75.4183 275° West 364 419 34,000  Level Boston Center
09:00PM 42.7725 -75.5544 275° West 369 425 34,000  Level Boston Center
09:01PM 42.7814 -75.6878 275° West 369 425 34,000  Level Boston Center
09:02PM 42.7900 -75.8214 275° West 364 419 34,000  Level Boston Center
09:03PM 42.7983 -75.9550 274° West 364 419 34,000  Level Boston Center
09:05PM 42.8111 -76.2156 274° West 363 418 34,000  Level Cleveland Center
09:06PM 42.8183 -76.3511 275° West 363 418 34,000  Level Cleveland Center
09:07PM 42.8272 -76.4836 275° West 363 418 34,000  Level Cleveland Center
09:08PM 42.8361 -76.6161 275° West 363 418 34,000  Level Cleveland Center
09:09PM 42.8447 -76.7486 274° West 363 418 34,000  Level Cleveland Center
09:10PM 42.8511 -76.8844 274° West 363 418 34,000  Level Cleveland Center
09:11PM 42.8575 -77.0200 275° West 363 418 34,000  Level Cleveland Center
09:12PM 42.8658 -77.1556 273° West 363 418 34,000  Level Cleveland Center
09:13PM 42.8717 -77.2883 274° West 358 412 34,000  Level Cleveland Center
09:14PM 42.8778 -77.4239 273° West 358 412 34,000  Level Cleveland Center
09:15PM 42.8833 -77.5569 274° West 358 412 34,000  Level Cleveland Center
09:16PM 42.8908 -77.6928 273° West 363 418 34,000  Level Cleveland Center
09:17PM 42.8964 -77.8283 273° West 363 418 34,000  Level Cleveland Center
09:18PM 42.9017 -77.9672 274° West 363 418 34,000  Level Cleveland Center
09:19PM 42.9089 -78.1028 273° West 363 418 34,000  Level Cleveland Center
09:20PM 42.9136 -78.2358 273° West 363 418 34,000  Level Cleveland Center
09:21PM 42.9186 -78.3747 273° West 363 418 34,000  Level Cleveland Center
09:22PM 42.9233 -78.5247 274° West 363 418 34,000  Level Cleveland Center
09:23PM 42.9297 -78.6608 275° West 363 418 34,000  Level Cleveland Center
09:24PM 42.9383 -78.7967 273° West 363 418 34,000  Level Cleveland Center
09:25PM 42.9444 -78.9353 275° West 363 418 34,000  Level Cleveland Center
09:26PM 42.9525 -79.0686 269° West 363 418 34,000  Level Cleveland Center
09:27PM 42.9500 -79.2000 270° West 360 414 34,000  Level Toronto Center
09:28PM 42.9500 -79.3333 280° West 360 414 34,000  Level Toronto Center
09:29PM 42.9667 -79.4667 270° West 360 414 34,000  Level Toronto Center
09:30PM 42.9667 -79.6167 270° West 360 414 34,000  Level Toronto Center
09:31PM 42.9667 -79.7500 280° West 360 414 34,000  Level Toronto Center
09:32PM 42.9833 -79.8833 270° West 360 414 34,000  Level Toronto Center
09:33PM 42.9833 -80.0167 280° West 360 414 34,000  Level Toronto Center
09:34PM 43.0000 -80.1500 270° West 360 414 34,000  Level Toronto Center
09:35PM 43.0000 -80.3000 270° West 360 414 34,000  Level Toronto Center
09:36PM 43.0000 -80.4333 280° West 360 414 34,000  Level Toronto Center
09:37PM 43.0167 -80.5667 270° West 360 414 34,000  Level Toronto Center
09:38PM 43.0167 -80.7000 260° West 360 414 34,000  Level Toronto Center
09:39PM 43.0000 -80.8333 278° West 360 414 34,000  Level Toronto Center
09:40PM 43.0167 -81.0000 270° West 370 426 34,000  Level Toronto Center
09:41PM 43.0167 -81.1167 285° West 370 426 34,000  Level Toronto Center
09:42PM 43.0500 -81.2833 283° West 370 426 34,000  Level Toronto Center
09:43PM 43.0667 -81.3833 278° West 370 426 34,000  Level Toronto Center
09:44PM 43.0833 -81.5500 280° West 370 426 34,000  Level Toronto Center
09:45PM 43.1000 -81.6833 291° West 370 426 34,000  Level Toronto Center
09:46PM 43.1333 -81.8000 270° West 360 414 34,000  Level Toronto Center
09:47PM 43.1333 -81.9333 279° West 360 414 34,000  Level Toronto Center
09:48PM 43.1500 -82.0833 281° West 360 414 34,000  Level Toronto Center
09:49PM 43.1667 -82.2000 287° West 360 414 34,000  Level Toronto Center
09:50PM 43.2000 -82.3500 281° West 360 414 34,000  Level Toronto Center
09:51PM 43.2167 -82.4667 280° West 360 414 34,000  Level Toronto Center
09:52PM 43.2333 -82.6000 282° West 360 414 34,000 -60 Level Toronto Center
09:53PM 43.2511 -82.7153 290° West 358 412 33,900 -60 Descending Cleveland Center
09:54PM 43.2842 -82.8389 290° West 348 400 33,900  Level Cleveland Center
09:55PM 43.3211 -82.9772 290° West 364 419 33,900  Level Cleveland Center
09:56PM 43.3500 -83.0869 290° West 359 413 33,900  Level Cleveland Center
09:57PM 43.3847 -83.2197 291° West 359 413 34,000  Climbing Cleveland Center
09:58PM 43.4211 -83.3500 289° West 367 422 33,900 -60 Descending Cleveland Center
09:59PM 43.4533 -83.4800 290° West 367 422 33,900  Level Cleveland Center
10:01PM 43.5389 -83.8019 287° West 381 438 34,000  Climbing Minneapolis Center
10:02PM 43.5692 -83.9350 289° West 371 427 34,000  Level Minneapolis Center
10:03PM 43.6014 -84.0678 292° West 371 427 34,000  Level Minneapolis Center
10:04PM 43.6400 -84.2025 289° West 371 427 34,000  Level Minneapolis Center
10:05PM 43.6742 -84.3381 289° West 371 427 34,000  Level Minneapolis Center
10:06PM 43.7058 -84.4686 288° West 371 427 34,000  Level Minneapolis Center
10:07PM 43.7342 -84.5881 290° West 376 433 34,000  Level Minneapolis Center
10:08PM 43.7700 -84.7239 288° West 376 433 34,000  Level Minneapolis Center
10:09PM 43.8039 -84.8658 288° West 376 433 34,000  Level Minneapolis Center
10:10PM 43.8350 -84.9997 289° West 376 433 34,000  Level Minneapolis Center
10:11PM 43.8686 -85.1392 290° West 376 433 34,000  Level Minneapolis Center
10:12PM 43.9036 -85.2728 288° West 376 433 34,000  Level Minneapolis Center
10:13PM 43.9367 -85.4125 287° West 376 433 34,000  Level Minneapolis Center
10:14PM 43.9672 -85.5500 289° West 376 433 34,000  Level Minneapolis Center
10:15PM 44.0050 -85.7008 288° West 383 441 34,000  Level Minneapolis Center
10:16PM 44.0381 -85.8469 288° West 383 441 34,000  Level Minneapolis Center
10:17PM 44.0706 -85.9875 288° West 383 441 34,000  Level Minneapolis Center
10:18PM 44.1028 -86.1281 287° West 389 448 34,000  Level Minneapolis Center
10:19PM 44.1328 -86.2692 287° West 389 448 34,000  Level Minneapolis Center
10:20PM 44.1650 -86.4158 288° West 394 453 34,000  Level Minneapolis Center
10:21PM 44.1992 -86.5597 284° West 394 453 34,000  Level Minneapolis Center
10:22PM 44.2247 -86.7047 280° West 394 453 34,000  Level Minneapolis Center
10:23PM 44.2442 -86.8592 280° West 394 453 34,000  Level Minneapolis Center
10:24PM 44.2636 -87.0136 280° West 399 459 34,000  Level Minneapolis Center
10:25PM 44.2831 -87.1711 279° West 411 473 34,000  Level Minneapolis Center
10:26PM 44.2992 -87.3089 278° West 411 473 34,000  Level Minneapolis Center
10:27PM 44.3158 -87.4667 280° West 409 471 34,000  Level Minneapolis Center
10:28PM 44.3369 -87.6272 278° West 409 471 34,000  Level Minneapolis Center
10:29PM 44.3533 -87.7856 280° West 409 471 34,000  Level Minneapolis Center
10:30PM 44.3736 -87.9433 279° West 417 480 34,000  Level Minneapolis Center
10:31PM 44.3919 -88.1044 279° West 425 489 34,000  Level Minneapolis Center
10:32PM 44.4100 -88.2658 279° West 420 483 34,000  Level Minneapolis Center
10:33PM 44.4278 -88.4269 279° West 420 483 34,000  Level Minneapolis Center
10:34PM 44.4453 -88.5914 279° West 428 493 34,000  Level Minneapolis Center
10:35PM 44.4625 -88.7528 278° West 428 493 34,000  Level Minneapolis Center
10:36PM 44.4797 -88.9175 277° West 422 486 34,000  Level Minneapolis Center
10:37PM 44.4944 -89.0794 279° West 422 486 34,000  Level Minneapolis Center
10:38PM 44.5133 -89.2439 278° West 428 493 34,000  Level Minneapolis Center
10:39PM 44.5297 -89.4089 278° West 428 493 34,000  Level Minneapolis Center
10:40PM 44.5461 -89.5736 278° West 428 493 34,000  Level Minneapolis Center
10:41PM 44.5619 -89.7358 278° West 422 486 34,000 -60 Level Minneapolis Center
10:42PM 44.5775 -89.8981 277° West 422 486 33,900 -60 Descending Minneapolis Center
10:43PM 44.5911 -90.0636 279° West 422 486 33,900  Level Minneapolis Center
10:44PM 44.6083 -90.2258 277° West 422 486 34,000  Climbing Minneapolis Center
10:45PM 44.6233 -90.3914 276° West 422 486 34,000  Level Minneapolis Center
10:46PM 44.6358 -90.5539 278° West 422 486 34,000  Level Minneapolis Center
10:47PM 44.6525 -90.7167 277° West 422 486 34,000 -60 Level Minneapolis Center
10:48PM 44.6667 -90.8736 276° West 422 486 33,900 -60 Descending Minneapolis Center
10:49PM 44.6783 -91.0278 277° West 416 479 33,900  Level Minneapolis Center
10:50PM 44.6919 -91.1850 276° West 410 472 33,900  Level Minneapolis Center
10:51PM 44.7033 -91.3422 277° West 405 466 33,900  Level Minneapolis Center
10:52PM 44.7167 -91.5022 277° West 410 472 34,000  Climbing Minneapolis Center
10:53PM 44.7319 -91.6772 276° West 410 472 34,000  Level Minneapolis Center
10:54PM 44.7428 -91.8347 276° West 410 472 34,000  Level Minneapolis Center
10:55PM 44.7553 -91.9922 277° West 405 466 34,000  Level Minneapolis Center
10:56PM 44.7675 -92.1439 276° West 398 458 34,000  Level Minneapolis Center
10:57PM 44.7797 -92.3014 276° West 408 470 34,000 -60 Level Minneapolis Center
10:58PM 44.7914 -92.4564 275° West 403 464 33,900  Descending Minneapolis Center
10:59PM 44.8011 -92.6142 276° West 408 470 34,000  Climbing Minneapolis Center
11:00PM 44.8125 -92.7689 276° West 408 470 34,000  Level Minneapolis Center
11:01PM 44.8236 -92.9269 277° West 403 464 34,000  Level Minneapolis Center
11:02PM 44.8369 -93.0819 274° West 403 464 34,000  Level Minneapolis Center
11:03PM 44.8433 -93.2283 276° West 408 470 34,000  Level Minneapolis Center
11:04PM 44.8561 -93.4097 274° West 454 522 34,000  Level Minneapolis Center
11:05PM 44.8644 -93.5678 274° West 424 488 34,000  Level Minneapolis Center
11:06PM 44.8725 -93.7231 275° West 406 467 34,000  Level Minneapolis Center
11:07PM 44.8822 -93.8872 275° West 411 473 34,000  Level Minneapolis Center
11:08PM 44.8919 -94.0483 274° West 411 473 34,000  Level Minneapolis Center
11:09PM 44.8994 -94.1978 275° West 419 482 34,000  Level Minneapolis Center
11:10PM 44.9086 -94.3622 276° West 419 482 34,000 300 Level Minneapolis Center
11:11PM 44.9197 -94.5236 273° West 424 488 34,600 600 Climbing Minneapolis Center
11:12PM 44.9264 -94.6819 276° West 424 488 35,300 600 Climbing Minneapolis Center
11:13PM 44.9389 -94.8464 273° West 424 488 35,800 300 Climbing Minneapolis Center
11:14PM 44.9450 -95.0139 274° West 424 488 36,000 60 Climbing Minneapolis Center
11:15PM 44.9531 -95.1842 275° West 424 488 36,000  Level Minneapolis Center
11:16PM 44.9628 -95.3575 273° West 429 494 36,000  Level Minneapolis Center
11:17PM 44.9700 -95.5308 273° West 442 509 36,000  Level Minneapolis Center
11:18PM 44.9767 -95.7189 274° West 442 509 36,000  Level Minneapolis Center
11:19PM 44.9856 -95.8897 273° West 442 509 36,000 -60 Level Minneapolis Center
11:20PM 44.9922 -96.0603 273° West 442 509 35,900 -60 Descending Minneapolis Center
11:21PM 44.9986 -96.2278 273° West 442 509 35,900  Level Minneapolis Center
11:22PM 45.0047 -96.3983 273° West 442 509 35,900  Level Minneapolis Center
11:23PM 45.0103 -96.5750 273° West 442 509 36,000  Climbing Minneapolis Center
11:24PM 45.0178 -96.7517 271° West 442 509 36,000  Level Minneapolis Center
11:25PM 45.0208 -96.9311 273° West 447 514 36,000  Level Minneapolis Center
11:26PM 45.0278 -97.1047 271° West 453 521 36,000  Level Minneapolis Center
11:27PM 45.0306 -97.2667 273° West 453 521 36,000 -60 Level Minneapolis Center
11:28PM 45.0369 -97.4433 273° West 458 527 35,900  Descending Minneapolis Center
11:29PM 45.0431 -97.6203 272° West 458 527 36,000  Climbing Minneapolis Center
11:30PM 45.0467 -97.7969 272° West 458 527 36,000  Level Minneapolis Center
11:31PM 45.0503 -97.9706 275° West 458 527 36,000  Level Minneapolis Center
11:32PM 45.0600 -98.1450 271° West 458 527 36,000  Level Minneapolis Center
11:33PM 45.0628 -98.3244 271° West 458 527 36,000  Level Minneapolis Center
11:34PM 45.0653 -98.4983 271° West 458 527 36,000 -60 Level Minneapolis Center
11:35PM 45.0675 -98.6781 272° West 458 527 35,900  Descending Minneapolis Center
11:36PM 45.0717 -98.8550 271° West 458 527 36,000  Climbing Minneapolis Center
11:37PM 45.0733 -99.0347 271° West 463 533 36,000  Level Minneapolis Center
11:38PM 45.0747 -99.2172 271° West 463 533 36,000  Level Minneapolis Center
11:39PM 45.0778 -99.3942 271° West 463 533 36,000  Level Minneapolis Center
11:40PM 45.0789 -99.5708 271° West 463 533 36,000  Level Minneapolis Center
11:41PM 45.0817 -99.7450 270° West 463 533 36,000  Level Minneapolis Center
11:42PM 45.0822 -99.9217 271° West 458 527 36,000 -60 Level Minneapolis Center
11:43PM 45.0833 -100.1161 270° West 466 536 35,900 -60 Descending Minneapolis Center
11:44PM 45.0833 -100.2900 271° West 461 531 35,900  Level Minneapolis Center
11:45PM 45.0847 -100.4669 270° West 455 524 36,000  Climbing Minneapolis Center
11:46PM 45.0842 -100.6436 270° West 455 524 36,000  Level Minneapolis Center
11:47PM 45.0833 -100.8172 270° West 455 524 36,000  Level Minneapolis Center
11:48PM 45.0822 -100.9908 270° West 450 518 36,000  Level Minneapolis Center
11:49PM 45.0828 -101.1650 269° West 450 518 36,000  Level Minneapolis Center
11:50PM 45.0814 -101.3386 269° West 450 518 36,000  Level Minneapolis Center
11:51PM 45.0792 -101.5150 262° West 450 518 36,000  Level Minneapolis Center
11:52PM 45.0622 -101.6894 251° West 450 518 36,000  Level Minneapolis Center
11:53PM 45.0206 -101.8572 240° Southwest 450 518 36,000  Level Minneapolis Center
11:55PM 44.8822 -102.1939 240° Southwest 447 514 36,000  Level Denver Center
11:56PM 44.8197 -102.3453 240° Southwest 447 514 36,000  Level Denver Center
11:57PM 44.7575 -102.4986 240° Southwest 450 518 36,000  Level Denver Center
11:58PM 44.6944 -102.6503 240° Southwest 451 519 36,000  Level Denver Center
11:59PM 44.6311 -102.8031 240° Southwest 452 520 36,000  Level Denver Center
12:00AM 44.5669 -102.9561 239° Southwest 454 522 36,000  Level Denver Center
12:01AM 44.5025 -103.1075 240° Southwest 454 522 36,000  Level Denver Center
12:02AM 44.4392 -103.2592 240° Southwest 453 521 36,000  Level Denver Center
12:03AM 44.3703 -103.4239 239° Southwest 454 522 36,000  Level Denver Center
12:04AM 44.3086 -103.5692 239° Southwest 454 522 36,000  Level Denver Center
12:05AM 44.2450 -103.7144 240° Southwest 459 528 36,000  Level Denver Center
12:06AM 44.1725 -103.8858 238° Southwest 460 529 36,000  Level Denver Center
12:07AM 44.1083 -104.0286 239° Southwest 457 526 36,000  Level Denver Center
12:08AM 44.0458 -104.1733 239° Southwest 457 526 36,000 -60 Level Denver Center
12:09AM 43.9728 -104.3408 239° Southwest 456 525 35,900  Descending Denver Center
12:10AM 43.9100 -104.4831 238° Southwest 454 522 36,000  Climbing Denver Center
12:11AM 43.8469 -104.6244 239° Southwest 452 520 36,000  Level Denver Center
12:12AM 43.7733 -104.7908 238° Southwest 454 522 36,000  Level Denver Center
12:13AM 43.7086 -104.9331 238° Southwest 456 525 36,000  Level Denver Center
12:14AM 43.6453 -105.0744 238° Southwest 455 524 36,000  Level Denver Center
12:15AM 43.5708 -105.2381 238° Southwest 453 521 36,000  Level Denver Center
12:17AM 43.5083 -105.3767 238° Southwest 451 519 36,000  Level Denver Center
12:18AM 43.4439 -105.5164 238° Southwest 451 519 36,000  Level Denver Center
12:19AM 43.3689 -105.6794 238° Southwest 452 520 36,000  Level Denver Center
12:20AM 43.3047 -105.8192 237° Southwest 453 521 36,000  Level Denver Center
12:21AM 43.2406 -105.9561 237° Southwest 450 518 36,000  Level Denver Center
12:22AM 43.1656 -106.1167 238° Southwest 450 518 36,000  Level Denver Center
12:23AM 43.1019 -106.2536 235° Southwest 447 514 36,000  Level Denver Center
12:24AM 43.0356 -106.3850 234° Southwest 443 510 36,000  Level Denver Center
12:25AM 42.9539 -106.5386 234° Southwest 446 513 36,000  Level Denver Center
12:26AM 42.8831 -106.6711 233° Southwest 450 518 36,000  Level Denver Center
12:27AM 42.8111 -106.8033 234° Southwest 453 521 36,000  Level Denver Center
12:28AM 42.7294 -106.9583 234° Southwest 452 520 36,000  Level Denver Center
12:29AM 42.6592 -107.0889 234° Southwest 449 517 36,000 -60 Level Denver Center
12:30AM 42.5881 -107.2214 234° Southwest 446 513 35,900 -60 Descending Denver Center
12:31AM 42.5181 -107.3511 234° Southwest 445 512 35,900  Level Denver Center
12:32AM 42.4347 -107.5036 234° Southwest 451 519 36,000  Climbing Denver Center
12:33AM 42.3633 -107.6353 233° Southwest 454 522 36,000  Level Denver Center
12:34AM 42.2908 -107.7672 233° Southwest 457 526 36,000  Level Denver Center
12:35AM 42.2064 -107.9203 233° Southwest 456 525 36,000  Level Denver Center
12:36AM 42.1336 -108.0514 233° Southwest 457 526 36,000  Level Denver Center
12:37AM 42.0606 -108.1808 233° Southwest 455 524 36,000  Level Denver Center
12:38AM 41.9761 -108.3319 233° Southwest 454 522 36,000  Level Denver Center
12:39AM 41.9039 -108.4614 233° Southwest 453 521 36,000  Level Denver Center
12:40AM 41.8311 -108.5908 233° Southwest 454 522 36,000  Level Denver Center
12:41AM 41.7469 -108.7394 233° Southwest 451 519 36,000  Level Denver Center
12:42AM 41.6747 -108.8669 233° Southwest 450 518 36,000  Level Denver Center
12:43AM 41.6028 -108.9922 226° Southwest 447 514 36,000  Level Denver Center
12:44AM 41.5061 -109.1244 225° Southwest 453 521 36,000  Level Denver Center
12:45AM 41.3817 -109.2900 225° Southwest 456 525 36,000  Level Salt Lake Center
12:46AM 41.2956 -109.4042 224° Southwest 458 527 36,000  Level Salt Lake Center
12:47AM 41.1942 -109.5361 225° Southwest 458 527 36,000  Level Salt Lake Center
12:48AM 41.1078 -109.6492 224° Southwest 458 527 36,000  Level Salt Lake Center
12:49AM 41.0058 -109.7817 224° Southwest 459 528 36,000  Level Salt Lake Center
12:50AM 40.9186 -109.8939 224° Southwest 458 527 36,000  Level Salt Lake Center
12:51AM 40.8311 -110.0056 224° Southwest 460 529 36,000  Level Salt Lake Center
12:52AM 40.7303 -110.1347 224° Southwest 457 526 36,000  Level Salt Lake Center
12:53AM 40.6419 -110.2464 224° Southwest 455 524 36,000  Level Salt Lake Center
12:54AM 40.5564 -110.3569 224° Southwest 456 525 36,000  Level Salt Lake Center
12:55AM 40.4553 -110.4847 224° Southwest 454 522 36,000  Level Salt Lake Center
12:56AM 40.3639 -110.5994 224° Southwest 453 521 36,000  Level Salt Lake Center
12:57AM 40.2811 -110.7042 224° Southwest 455 524 36,000 -240 Level Salt Lake Center
12:58AM 40.1786 -110.8319 224° Southwest 456 525 35,600 -900 Descending Salt Lake Center
12:59AM 40.0853 -110.9481 224° Southwest 456 525 34,300 -840 Descending Salt Lake Center
01:00AM 40.0033 -111.0506 223° Southwest 456 525 34,000 -180 Descending Salt Lake Center
01:01AM 39.8986 -111.1778 223° Southwest 458 527 34,000  Level Salt Lake Center
01:02AM 39.8111 -111.2853 220° Southwest 456 525 34,000  Level Salt Lake Center
01:03AM 39.7056 -111.4003 214° Southwest 461 531 34,000  Level Salt Lake Center
01:04AM 39.5975 -111.4944 215° Southwest 468 539 34,000  Level Salt Lake Center
01:05AM 39.4919 -111.5894 215° Southwest 459 528 34,000  Level Salt Lake Center
01:06AM 39.3878 -111.6836 215° Southwest 454 522 34,000 -60 Level Salt Lake Center
01:07AM 39.2833 -111.7769 215° Southwest 452 520 33,900  Descending Salt Lake Center
01:08AM 39.1858 -111.8636 214° Southwest 452 520 34,000  Climbing Salt Lake Center
01:09AM 39.0803 -111.9567 215° Southwest 452 520 34,000  Level Salt Lake Center
01:11AM 38.9744 -112.0503 215° Southwest 454 522 34,000  Level Salt Lake Center
01:12AM 38.8692 -112.1439 214° Southwest 454 522 34,000  Level Salt Lake Center
01:13AM 38.7628 -112.2364 214° Southwest 455 524 34,000  Level Salt Lake Center
01:14AM 38.6569 -112.3292 214° Southwest 455 524 34,000  Level Salt Lake Center
01:15AM 38.5519 -112.4206 215° Southwest 452 520 34,000  Level Salt Lake Center
01:16AM 38.4478 -112.5119 214° Southwest 449 517 34,000  Level Salt Lake Center
01:17AM 38.3433 -112.6008 214° Southwest 446 513 34,000 -60 Level Salt Lake Center
01:18AM 38.2403 -112.6883 214° Southwest 442 509 33,900  Descending Salt Lake Center
01:19AM 38.1372 -112.7775 214° Southwest 442 509 34,000  Climbing Salt Lake Center
01:20AM 38.0336 -112.8664 214° Southwest 443 510 34,000  Level Salt Lake Center
01:21AM 37.9303 -112.9564 214° Southwest 446 513 34,000  Level Salt Lake Center
01:22AM 37.8258 -113.0461 214° Southwest 448 516 34,000  Level Salt Lake Center
01:23AM 37.7219 -113.1339 214° Southwest 449 517 34,000  Level Salt Lake Center
01:24AM 37.6189 -113.2206 213° Southwest 446 513 34,000  Level Salt Lake Center
01:25AM 37.5144 -113.3072 214° Southwest 446 513 34,000  Level Salt Lake Center
01:26AM 37.3711 -113.4311 214° Southwest 450 518 34,000 -360 Level Los Angeles Center
01:27AM 37.2667 -113.5181 213° Southwest 450 518 33,300 -1,140 Descending Los Angeles Center
01:28AM 37.1764 -113.5914 213° Southwest 450 518 31,800 -1,980 Descending Los Angeles Center
01:29AM 37.0758 -113.6728 214° Southwest 445 512 29,400 -2,280 Descending Los Angeles Center
01:30AM 36.9794 -113.7536 214° Southwest 433 498 27,300 -2,100 Descending Los Angeles Center
01:31AM 36.8872 -113.8319 213° Southwest 427 491 25,200 -2,220 Descending Los Angeles Center
01:32AM 36.7886 -113.9125 213° Southwest 408 470 22,900 -2,100 Descending Los Angeles Center
01:33AM 36.7064 -113.9794 213° Southwest 397 457 21,100 -1,980 Descending Los Angeles Center
01:34AM 36.6097 -114.0572 229° Southwest 392 451 19,000 -2,040 Descending Los Angeles Center
01:35AM 36.5444 -114.1519 240° Southwest 386 444 17,100 -1,980 Descending Los Angeles Center
01:36AM 36.4961 -114.2564 241° Southwest 355 409 15,200 -1,980 Descending Los Angeles Center
01:37AM 36.4475 -114.3633 238° Southwest 362 417 13,200 -1,620 Descending Los Angeles Center
01:38AM 36.3989 -114.4600 229° Southwest 350 403 12,000 -780 Descending Los Angeles Center
01:39AM 36.3394 -114.5461 231° Southwest 339 390 11,700 -780 Descending Los Angeles Center
01:40AM 36.2842 -114.6322 231° Southwest 315 362 10,500 -1,380 Descending Los Angeles Center
01:41AM 36.2289 -114.7156 231° Southwest 302 348 9,000 -1,620 Descending Los Angeles Center
01:42AM 36.1858 -114.7808 230° Southwest 293 337 7,400 -1,860 Descending Los Angeles Center
01:43AM 36.1344 -114.8561 229° Southwest 303 349 5,300 -1,200 Descending Los Angeles Center
01:44AM 36.0850 -114.9264 257° West 290 334 4,900 -600 Descending Los Angeles Center
01:45AM 36.0711 -114.9986 273° West 236 272 4,100 -900 Descending Los Angeles Center
01:46AM 36.0739 -115.0600 268° West 212 244 3,100 -900 Descending Los Angeles Center
01:47AM 36.0722 -115.1117 275° West 177 204 2,400 -540 Descending Los Angeles Center
01:48AM 36.0747 -115.1500 334° Northwest 145 167 2,100 -180 Descending Los Angeles Center
01:49AM 36.0789 -115.1525 94° East 71 82 2,100  Level Los Angeles Center
01:50AM 36.0786 -115.1475 90° East 24 28 2,100  Level Los Angeles Center
01:51AM 36.0786 -115.1372 90° East 7 8 2,100 -60 Level Los Angeles Center
01:52AM 36.0786 -115.1347 45° Northeast 33 38 2,000  Descending Los Angeles Center
01:53AM 36.0808 -115.1319 334° Northwest 18 21 2,100  Climbing Los Angeles Center
01:54AM 36.0850 -115.1344 270° West 1 1 2,100  Level Los Angeles Center
01:55AM 36.0850 -115.1369 270° West 7 8 2,100  Level Los Angeles Center